Latest Coastal Weather Observations for Cape Wessel

IDD60701

Issued at 12:25 pm CST Monday 21 April 2014 (issued every 10 minutes, with the page automatically refreshed every 10 minutes)

About coastal observations | Map of coastal stations | Coastal observations for NT | Marine services | Other Formats
Station Details ID: 200786 Name: CAPE WESSEL Lat: -11.00 Lon: 136.76 Height: 18.0 m
Data from the previous 72 hours. | See also: Recent months for locations in Northern Territory
Date/Time
CST
Temp

°C
Wind Pressure Rain
since 9am
mm
Weather Cloud Vis
km
Sea
Height
m
Swell
Dir
 
Speed
knots
Gust
knots
hPa Trend Height
m
Period
s
Dir
21/12:00pm 30.4 E 20 26 1009.2 - 0.2 - - - - - - -
21/11:30am 31.2 E 19 24 1009.8 - 0.2 - - - - - - -
21/11:00am 30.9 E 21 26 1010.1 - 0.2 - - - - - - -
21/10:30am 30.8 E 23 29 1010.3 - 0.2 - - - - - - -
21/10:00am 29.9 E 23 28 1010.5 - 0.2 - - - - - - -
21/09:30am 30.0 E 23 28 1010.4 - 0.0 - - - - - - -
21/09:00am 29.7 E 23 29 1010.1 - 0.2 - - - - - - -
21/08:30am 29.1 E 22 27 1010.0 - 0.2 - - - - - - -
21/08:00am 28.6 E 22 30 1009.9 - 0.2 - - - - - - -
21/07:30am 28.0 E 20 25 1009.6 - 0.2 - - - - - - -
21/07:00am 27.4 E 22 26 1009.5 - 0.2 - - - - - - -
21/06:41am 26.2 E 15 25 1009.5 - 0.2 - - - - - - -
21/06:30am 25.9 E 14 19 1009.7 - 0.2 - - - - - - -
21/06:00am 25.2 E 20 27 1009.3 - 0.2 - - - - - - -
21/05:55am 24.8 E 20 27 1009.5 - 0.2 - - - - - - -
21/05:47am 25.3 ESE 20 26 1009.3 - 0.2 - - - - - - -
21/05:30am 25.8 E 24 31 1009.1 - 0.0 - - - - - - -
21/05:11am 25.8 E 28 38 1008.7 - 0.0 - - - - - - -
21/05:00am 27.0 E 32 36 1008.6 - 0.0 - - - - - - -
21/04:57am 28.1 ESE 20 31 1008.6 - 0.0 - - - - - - -
21/04:30am 28.2 ESE 19 22 1008.4 - 0.0 - - - - - - -
21/04:00am 28.3 ESE 19 24 1008.4 - 0.0 - - - - - - -
21/03:30am 28.0 ESE 18 22 1008.6 - 0.0 - - - - - - -
21/03:00am 28.1 ESE 18 23 1008.4 - 0.0 - - - - - - -
21/02:30am 28.1 ESE 20 25 1008.3 - 0.0 - - - - - - -
21/02:00am 28.1 ESE 19 25 1008.2 - 0.0 - - - - - - -
21/01:30am 28.1 ESE 18 23 1008.4 - 0.0 - - - - - - -
21/01:00am 28.2 ESE 20 25 1008.7 - 0.0 - - - - - - -
21/12:30am 28.1 ESE 19 23 1009.2 - 0.0 - - - - - - -
21/12:00am 28.1 ESE 19 23 1009.3 - 0.0 - - - - - - -
 
Date/Time
CST
Temp

°C
Wind Pressure Rain
since 9am
mm
Weather Cloud Vis
km
Sea
Height
m
Swell
Dir
 
Speed
knots
Gust
knots
hPa Trend Height
m
Period
s
Dir
20/11:30pm 28.1 ESE 19 23 1009.5 - 0.0 - - - - - - -
20/11:00pm 28.1 ESE 19 24 1009.9 - 0.0 - - - - - - -
20/10:30pm 28.1 ESE 18 23 1009.9 - 0.0 - - - - - - -
20/10:00pm 28.2 ESE 21 26 1009.9 - 0.0 - - - - - - -
20/09:30pm 28.2 ESE 19 25 1010.2 - 0.0 - - - - - - -
20/09:00pm 28.2 ESE 19 24 1010.0 - 0.0 - - - - - - -
20/08:30pm 28.2 ESE 19 24 1009.9 - 0.0 - - - - - - -
20/08:00pm 28.3 ESE 20 25 1009.5 - 0.0 - - - - - - -
20/07:30pm 28.1 ESE 19 23 1009.4 - 0.0 - - - - - - -
20/07:00pm 28.2 ESE 19 23 1009.0 - 0.0 - - - - - - -
20/06:30pm 28.3 ESE 19 24 1008.7 - 0.0 - - - - - - -
20/06:00pm 28.4 ESE 20 24 1008.3 - 0.0 - - - - - - -
20/05:30pm 28.4 ESE 20 24 1008.3 - 0.0 - - - - - - -
20/05:00pm 29.2 ESE 18 22 1007.8 - 0.0 - - - - - - -
20/04:30pm 29.6 E 19 25 1007.6 - 0.0 - - - - - - -
20/04:00pm 29.4 E 20 25 1007.6 - 0.0 - - - - - - -
20/03:30pm 29.5 E 20 25 1007.5 - 0.0 - - - - - - -
20/03:00pm 29.8 E 20 24 1007.4 - 0.0 - - - - - - -
20/02:30pm 29.6 E 19 25 1007.5 - 0.0 - - - - - - -
20/02:00pm 30.0 E 20 26 1007.7 - 0.0 - - - - - - -
20/01:30pm 30.2 E 20 26 1008.0 - 0.0 - - - - - - -
20/01:00pm 29.8 E 21 26 1008.2 - 0.0 - - - - - - -
20/12:30pm 29.8 E 21 27 1008.7 - 0.0 - - - - - - -
20/12:00pm 30.8 E 22 28 1009.0 - 0.0 - - - - - - -
20/11:30am 30.7 E 22 28 1009.5 - 0.0 - - - - - - -
20/11:00am 30.2 E 22 27 1009.9 - 0.0 - - - - - - -
20/10:30am 30.6 E 22 27 1010.3 - 0.0 - - - - - - -
20/10:00am 30.0 E 21 27 1010.3 - 0.0 - - - - - - -
20/09:30am 29.9 E 22 27 1009.7 - 0.0 - - - - - - -
20/09:00am 29.4 ESE 22 27 1009.3 - 20.4 - - - - - - -
20/08:30am 28.7 ESE 22 28 1009.2 - 20.4 - - - - - - -
20/08:00am 28.2 E 23 29 1009.2 - 20.4 - - - - - - -
20/07:30am 27.9 E 24 30 1008.9 - 20.4 - - - - - - -
20/07:00am 27.1 ESE 20 25 1008.5 - 20.2 - - - - - - -
20/06:30am 25.7 SE 22 28 1008.4 - 20.2 - - - - - - -
20/06:02am 26.5 SE 23 37 1008.3 - 17.0 - - - - - - -
20/06:00am 26.6 SE 22 29 1008.1 - 16.4 - - - - - - -
20/05:55am 27.3 SSE 24 31 1008.1 - 16.4 - - - - - - -
20/05:30am 28.3 ESE 23 29 1007.7 - 16.2 - - - - - - -
20/05:00am 27.8 ESE 21 27 1007.6 - 16.2 - - - - - - -
20/04:30am 27.2 ESE 19 25 1007.5 - 16.2 - - - - - - -
20/04:00am 26.5 ESE 21 29 1007.6 - 16.2 - - - - - - -
20/03:45am 27.5 SE 20 30 1007.4 - 16.0 - - - - - - -
20/03:30am 27.2 SE 19 24 1007.4 - 16.0 - - - - - - -
20/03:00am 28.1 ESE 18 22 1007.3 - 15.8 - - - - - - -
20/02:30am 28.2 ESE 19 25 1007.5 - 15.8 - - - - - - -
20/02:00am 28.0 ESE 17 21 1007.7 - 15.8 - - - - - - -
20/01:30am 27.9 SE 18 23 1008.1 - 15.8 - - - - - - -
20/01:00am 28.2 ESE 18 21 1008.5 - 15.8 - - - - - - -
20/12:30am 28.2 SE 17 23 1008.8 - 15.8 - - - - - - -
20/12:00am 28.2 ESE 19 23 1009.1 - 15.8 - - - - - - -
 
Date/Time
CST
Temp

°C
Wind Pressure Rain
since 9am
mm
Weather Cloud Vis
km
Sea
Height
m
Swell
Dir
 
Speed
knots
Gust
knots
hPa Trend Height
m
Period
s
Dir
19/11:30pm 28.2 ESE 19 23 1009.3 - 15.8 - - - - - - -
19/11:00pm 28.1 SE 17 22 1009.3 - 15.8 - - - - - - -
19/10:30pm 28.0 SE 17 21 1009.7 - 15.8 - - - - - - -
19/10:00pm 27.6 ESE 18 23 1010.1 - 15.8 - - - - - - -
19/09:30pm 28.1 SE 18 21 1010.2 - 15.8 - - - - - - -
19/09:00pm 28.2 SE 17 21 1009.9 - 15.8 - - - - - - -
19/08:30pm 28.1 ESE 16 20 1009.8 - 15.8 - - - - - - -
19/08:00pm 28.0 ESE 16 19 1009.5 - 15.8 - - - - - - -
19/07:30pm 27.8 ESE 15 18 1009.1 - 15.8 - - - - - - -
19/07:00pm 27.8 ESE 15 19 1008.9 - 15.8 - - - - - - -
19/06:30pm 27.7 ESE 15 19 1008.8 - 15.8 - - - - - - -
19/06:00pm 27.6 ESE 15 18 1008.3 - 15.8 - - - - - - -
19/05:30pm 27.4 E 10 12 1008.3 - 15.8 - - - - - - -
19/05:00pm 27.3 E 11 14 1008.2 - 15.8 - - - - - - -
19/04:30pm 27.1 ENE 11 14 1008.1 - 15.8 - - - - - - -
19/04:00pm 26.9 ENE 11 14 1008.2 - 15.8 - - - - - - -
19/03:30pm 26.6 ENE 12 16 1008.3 - 15.8 - - - - - - -
19/03:00pm 26.4 ENE 13 18 1008.3 - 15.8 - - - - - - -
19/02:30pm 26.6 NE 16 21 1008.5 - 15.6 - - - - - - -
19/02:00pm 26.3 NE 18 25 1008.7 - 15.6 - - - - - - -
19/01:30pm 26.4 NE 15 19 1008.8 - 15.6 - - - - - - -
19/01:00pm 26.5 ENE 19 26 1009.3 - 15.6 - - - - - - -
19/12:54pm 26.1 ENE 20 26 1009.3 - 15.4 - - - - - - -
19/12:35pm 25.8 ESE 18 31 1009.7 - 11.6 - - - - - - -
19/12:30pm 25.4 ESE 16 22 1009.6 - 10.4 - - - - - - -
19/12:18pm 25.8 ENE 18 25 1009.7 - 8.0 - - - - - - -
19/12:00pm 26.3 E 21 30 1009.9 - 5.8 - - - - - - -
19/11:48am 26.3 E 20 30 1010.2 - 3.0 - - - - - - -
19/11:41am 26.6 E 20 26 1010.1 - 0.4 - - - - - - -
19/11:30am 27.1 SE 19 24 1010.3 - 0.0 - - - - - - -
19/11:24am 27.3 ESE 21 24 1010.4 - 0.0 - - - - - - -
19/11:00am 28.4 E 19 24 1010.7 - 0.0 - - - - - - -
19/10:30am 28.0 E 20 25 1011.1 - 0.0 - - - - - - -
19/10:00am 27.8 E 20 25 1011.3 - 0.0 - - - - - - -
19/09:30am 27.6 E 20 27 1011.2 - 0.0 - - - - - - -
19/09:00am 26.5 ESE 21 25 1011.0 - 57.8 - - - - - - -
19/08:32am 25.4 SE 23 33 1010.9 - 57.8 - - - - - - -
19/08:30am 25.9 SE 22 31 1011.0 - 57.8 - - - - - - -
19/08:28am 26.0 SE 21 31 1011.0 - 57.8 - - - - - - -
19/08:00am 26.9 E 22 27 1010.4 - 57.8 - - - - - - -
19/07:30am 26.6 E 21 27 1010.1 - 57.8 - - - - - - -
19/07:00am 26.0 ESE 20 24 1010.2 - 57.8 - - - - - - -
19/06:30am 24.8 ESE 22 29 1009.8 - 57.4 - - - - - - -
19/06:00am 25.1 ESE 27 37 1009.2 - 50.6 - - - - - - -
19/05:52am 25.8 SE 22 32 1009.0 - 48.4 - - - - - - -
19/05:30am 25.7 ESE 21 28 1009.1 - 48.4 - - - - - - -
19/05:00am 27.0 ESE 19 27 1009.1 - 48.4 - - - - - - -
19/04:30am 26.8 ESE 17 21 1009.1 - 48.4 - - - - - - -
19/04:00am 26.5 ESE 19 24 1009.1 - 48.4 - - - - - - -
19/03:30am 26.3 ESE 15 20 1009.0 - 48.4 - - - - - - -
19/03:00am 26.0 ESE 17 22 1009.2 - 48.4 - - - - - - -
19/02:30am 26.0 SE 20 24 1009.4 - 48.4 - - - - - - -
19/02:00am 25.5 ESE 19 24 1009.5 - 48.4 - - - - - - -
19/01:30am 25.4 ESE 16 21 1009.9 - 48.4 - - - - - - -
19/01:00am 25.5 SE 18 21 1010.4 - 46.8 - - - - - - -
19/12:30am 25.6 SSE 19 24 1010.8 - 46.4 - - - - - - -
19/12:09am 26.0 SSE 22 27 1010.9 - 46.4 - - - - - - -
19/12:00am 26.5 S 11 16 1011.0 - 42.0 - - - - - - -
 
Date/Time
CST
Temp

°C
Wind Pressure Rain
since 9am
mm
Weather Cloud Vis
km
Sea
Height
m
Swell
Dir
 
Speed
knots
Gust
knots
hPa Trend Height
m
Period
s
Dir
18/11:30pm 27.1 SE 9 13 1011.3 - 42.0 - - - - - - -
18/11:00pm 26.8 SSE 9 11 1011.7 - 42.0 - - - - - - -
18/10:30pm 26.8 ESE 10 13 1011.7 - 42.0 - - - - - - -
18/10:00pm 26.6 ESE 10 13 1011.6 - 42.0 - - - - - - -
18/09:30pm 26.5 ESE 10 13 1011.7 - 42.0 - - - - - - -
18/09:00pm 26.6 SE 11 13 1011.6 - 42.0 - - - - - - -
18/08:30pm 26.6 ESE 10 13 1011.7 - 42.0 - - - - - - -
18/08:00pm 26.4 ESE 10 12 1011.4 - 42.0 - - - - - - -
18/07:30pm 26.1 E 9 11 1011.1 - 42.0 - - - - - - -
18/07:00pm 25.7 E 10 12 1010.6 - 42.0 - - - - - - -
18/06:30pm 25.3 ENE 6 9 1010.2 - 42.0 - - - - - - -
18/06:00pm 25.1 ENE 5 6 1009.8 - 42.0 - - - - - - -
18/05:30pm 25.3 E 8 11 1009.7 - 42.0 - - - - - - -
18/05:00pm 25.5 ESE 13 19 1009.6 - 42.0 - - - - - - -
18/04:30pm 25.4 E 12 14 1009.6 - 41.6 - - - - - - -
18/04:00pm 25.3 E 13 16 1009.7 - 40.8 - - - - - - -
18/03:30pm 24.5 E 12 16 1009.7 - 39.4 - - - - - - -
18/03:00pm 24.3 NE 10 13 1009.6 - 38.0 - - - - - - -
18/02:30pm 24.4 ENE 16 25 1009.7 - 30.6 - - - - - - -
18/02:23pm 24.6 NE 15 20 1010.2 - 28.8 - - - - - - -
18/02:00pm 25.9 NNE 5 9 1009.6 - 27.0 - - - - - - -
18/01:30pm 25.8 NNE 11 18 1009.9 - 18.4 - - - - - - -
18/01:18pm 26.3 NNE 16 27 1009.9 - 9.6 - - - - - - -
18/01:00pm 29.2 ENE 14 18 1009.8 - 5.0 - - - - - - -
18/12:30pm 27.3 ENE 14 19 1009.8 - 5.0 - - - - - - -

Other Formats:

Comma delimited format used in spreadsheet applications
http://www.bom.gov.au/fwo/IDD60701/IDD60701.94147.axf

JavaScript Object Notation format (JSON) in row-major order
http://www.bom.gov.au/fwo/IDD60701/IDD60701.94147.json